sensor_id;sensor_type;location;lat;lon;timestamp;P1;durP1;ratioP1;P2;durP2;ratioP2
49962;SDS011;36180;57.678;11.910;2023-01-20T00:00:45;29.23;;;18.42;;
49962;SDS011;36180;57.678;11.910;2023-01-20T00:03:12;29.40;;;17.15;;
49962;SDS011;36180;57.678;11.910;2023-01-20T00:05:44;26.45;;;16.75;;
49962;SDS011;36180;57.678;11.910;2023-01-20T00:08:16;28.13;;;17.42;;
49962;SDS011;36180;57.678;11.910;2023-01-20T00:10:43;33.17;;;18.38;;
49962;SDS011;36180;57.678;11.910;2023-01-20T00:13:10;31.80;;;17.38;;
49962;SDS011;36180;57.678;11.910;2023-01-20T00:15:38;29.95;;;17.63;;
49962;SDS011;36180;57.678;11.910;2023-01-20T00:18:06;31.67;;;18.55;;
49962;SDS011;36180;57.678;11.910;2023-01-20T00:20:33;29.08;;;17.52;;
49962;SDS011;36180;57.678;11.910;2023-01-20T00:23:00;28.00;;;17.50;;
49962;SDS011;36180;57.678;11.910;2023-01-20T00:25:27;27.83;;;16.55;;
49962;SDS011;36180;57.678;11.910;2023-01-20T00:27:55;28.95;;;17.23;;
49962;SDS011;36180;57.678;11.910;2023-01-20T00:30:22;33.58;;;18.27;;
49962;SDS011;36180;57.678;11.910;2023-01-20T00:32:49;32.90;;;18.38;;
49962;SDS011;36180;57.678;11.910;2023-01-20T00:35:17;29.98;;;16.42;;
49962;SDS011;36180;57.678;11.910;2023-01-20T00:37:44;31.05;;;18.17;;
49962;SDS011;36180;57.678;11.910;2023-01-20T00:40:12;28.50;;;18.55;;
49962;SDS011;36180;57.678;11.910;2023-01-20T00:42:39;32.92;;;18.77;;
49962;SDS011;36180;57.678;11.910;2023-01-20T00:45:07;32.72;;;18.20;;
49962;SDS011;36180;57.678;11.910;2023-01-20T00:47:34;29.17;;;17.73;;
49962;SDS011;36180;57.678;11.910;2023-01-20T00:50:01;29.92;;;17.85;;
49962;SDS011;36180;57.678;11.910;2023-01-20T00:52:30;30.55;;;18.08;;
49962;SDS011;36180;57.678;11.910;2023-01-20T00:54:57;32.92;;;18.63;;
49962;SDS011;36180;57.678;11.910;2023-01-20T00:57:24;33.03;;;18.30;;
49962;SDS011;36180;57.678;11.910;2023-01-20T00:59:51;30.80;;;18.48;;
49962;SDS011;36180;57.678;11.910;2023-01-20T01:02:18;29.95;;;17.50;;
49962;SDS011;36180;57.678;11.910;2023-01-20T01:04:47;30.98;;;17.85;;
49962;SDS011;36180;57.678;11.910;2023-01-20T01:07:16;41.53;;;25.33;;
49962;SDS011;36180;57.678;11.910;2023-01-20T01:09:44;37.22;;;20.90;;
49962;SDS011;36180;57.678;11.910;2023-01-20T01:12:11;34.55;;;20.50;;
49962;SDS011;36180;57.678;11.910;2023-01-20T01:14:38;33.97;;;19.50;;
49962;SDS011;36180;57.678;11.910;2023-01-20T01:17:05;32.00;;;18.77;;
49962;SDS011;36180;57.678;11.910;2023-01-20T01:19:33;33.85;;;19.48;;
49962;SDS011;36180;57.678;11.910;2023-01-20T01:22:00;36.70;;;18.77;;
49962;SDS011;36180;57.678;11.910;2023-01-20T01:24:27;34.63;;;19.27;;
49962;SDS011;36180;57.678;11.910;2023-01-20T01:26:55;34.42;;;18.95;;
49962;SDS011;36180;57.678;11.910;2023-01-20T01:29:22;33.38;;;18.92;;
49962;SDS011;36180;57.678;11.910;2023-01-20T01:31:50;32.10;;;18.75;;
49962;SDS011;36180;57.678;11.910;2023-01-20T01:34:17;31.85;;;18.15;;
49962;SDS011;36180;57.678;11.910;2023-01-20T01:36:44;34.47;;;18.70;;
49962;SDS011;36180;57.678;11.910;2023-01-20T01:39:11;34.63;;;19.92;;
49962;SDS011;36180;57.678;11.910;2023-01-20T01:41:38;34.20;;;18.55;;
49962;SDS011;36180;57.678;11.910;2023-01-20T01:44:08;33.45;;;19.30;;
49962;SDS011;36180;57.678;11.910;2023-01-20T01:46:36;29.83;;;18.25;;
49962;SDS011;36180;57.678;11.910;2023-01-20T01:49:05;33.08;;;17.67;;
49962;SDS011;36180;57.678;11.910;2023-01-20T01:51:35;32.40;;;18.80;;
49962;SDS011;36180;57.678;11.910;2023-01-20T01:54:07;29.92;;;18.20;;
49962;SDS011;36180;57.678;11.910;2023-01-20T01:56:36;31.70;;;17.88;;
49962;SDS011;36180;57.678;11.910;2023-01-20T01:59:03;33.50;;;18.98;;
49962;SDS011;36180;57.678;11.910;2023-01-20T02:01:35;33.08;;;18.48;;
49962;SDS011;36180;57.678;11.910;2023-01-20T02:04:04;35.55;;;17.92;;
49962;SDS011;36180;57.678;11.910;2023-01-20T02:06:34;35.47;;;18.25;;
49962;SDS011;36180;57.678;11.910;2023-01-20T02:09:05;29.52;;;17.52;;
49962;SDS011;36180;57.678;11.910;2023-01-20T02:11:34;32.25;;;18.20;;
49962;SDS011;36180;57.678;11.910;2023-01-20T02:14:03;34.55;;;18.27;;
49962;SDS011;36180;57.678;11.910;2023-01-20T02:16:32;30.38;;;18.25;;
49962;SDS011;36180;57.678;11.910;2023-01-20T02:19:13;31.85;;;17.65;;
49962;SDS011;36180;57.678;11.910;2023-01-20T02:27:41;34.60;;;17.25;;
49962;SDS011;36180;57.678;11.910;2023-01-20T02:30:30;31.55;;;17.88;;
49962;SDS011;36180;57.678;11.910;2023-01-20T02:33:16;30.75;;;16.70;;
49962;SDS011;36180;57.678;11.910;2023-01-20T02:35:45;29.90;;;17.05;;
49962;SDS011;36180;57.678;11.910;2023-01-20T02:38:15;29.38;;;17.52;;
49962;SDS011;36180;57.678;11.910;2023-01-20T02:40:48;32.33;;;18.23;;
49962;SDS011;36180;57.678;11.910;2023-01-20T02:43:19;28.55;;;16.90;;
49962;SDS011;36180;57.678;11.910;2023-01-20T02:45:49;31.15;;;17.73;;
49962;SDS011;36180;57.678;11.910;2023-01-20T02:48:22;28.23;;;16.77;;
49962;SDS011;36180;57.678;11.910;2023-01-20T02:50:53;28.00;;;17.00;;
49962;SDS011;36180;57.678;11.910;2023-01-20T02:55:51;30.00;;;17.27;;
49962;SDS011;36180;57.678;11.910;2023-01-20T02:58:22;30.00;;;16.48;;
49962;SDS011;36180;57.678;11.910;2023-01-20T03:00:51;28.20;;;16.90;;
49962;SDS011;36180;57.678;11.910;2023-01-20T03:03:22;30.08;;;16.90;;
49962;SDS011;36180;57.678;11.910;2023-01-20T03:05:54;35.30;;;18.73;;
49962;SDS011;36180;57.678;11.910;2023-01-20T03:08:23;30.35;;;16.02;;
49962;SDS011;36180;57.678;11.910;2023-01-20T03:10:53;33.88;;;17.80;;
49962;SDS011;36180;57.678;11.910;2023-01-20T03:13:22;30.90;;;17.05;;
49962;SDS011;36180;57.678;11.910;2023-01-20T03:15:54;30.10;;;17.30;;
49962;SDS011;36180;57.678;11.910;2023-01-20T03:18:25;31.10;;;18.00;;
49962;SDS011;36180;57.678;11.910;2023-01-20T03:20:55;32.10;;;17.83;;
49962;SDS011;36180;57.678;11.910;2023-01-20T03:23:22;32.25;;;18.33;;
49962;SDS011;36180;57.678;11.910;2023-01-20T03:25:51;31.90;;;18.50;;
49962;SDS011;36180;57.678;11.910;2023-01-20T03:28:18;32.53;;;17.70;;
49962;SDS011;36180;57.678;11.910;2023-01-20T03:30:45;30.58;;;17.38;;
49962;SDS011;36180;57.678;11.910;2023-01-20T03:33:12;31.17;;;17.27;;
49962;SDS011;36180;57.678;11.910;2023-01-20T03:35:42;39.20;;;18.10;;
49962;SDS011;36180;57.678;11.910;2023-01-20T03:38:09;35.30;;;18.58;;
49962;SDS011;36180;57.678;11.910;2023-01-20T03:40:38;33.38;;;18.35;;
49962;SDS011;36180;57.678;11.910;2023-01-20T03:43:10;38.65;;;19.05;;
49962;SDS011;36180;57.678;11.910;2023-01-20T03:45:41;30.27;;;17.58;;
49962;SDS011;36180;57.678;11.910;2023-01-20T03:48:16;36.03;;;18.10;;
49962;SDS011;36180;57.678;11.910;2023-01-20T03:50:49;34.65;;;17.08;;
49962;SDS011;36180;57.678;11.910;2023-01-20T03:53:24;41.67;;;18.58;;
49962;SDS011;36180;57.678;11.910;2023-01-20T03:55:57;38.70;;;19.35;;
49962;SDS011;36180;57.678;11.910;2023-01-20T03:58:28;39.95;;;18.08;;
49962;SDS011;36180;57.678;11.910;2023-01-20T04:00:56;40.05;;;19.05;;
49962;SDS011;36180;57.678;11.910;2023-01-20T04:03:25;35.47;;;18.08;;
49962;SDS011;36180;57.678;11.910;2023-01-20T04:05:56;42.50;;;18.85;;
49962;SDS011;36180;57.678;11.910;2023-01-20T04:08:24;38.50;;;18.95;;
49962;SDS011;36180;57.678;11.910;2023-01-20T04:10:55;35.22;;;19.05;;
49962;SDS011;36180;57.678;11.910;2023-01-20T04:13:23;39.72;;;19.33;;
49962;SDS011;36180;57.678;11.910;2023-01-20T04:15:51;38.67;;;20.08;;
49962;SDS011;36180;57.678;11.910;2023-01-20T04:18:18;42.58;;;19.90;;
49962;SDS011;36180;57.678;11.910;2023-01-20T04:20:47;41.92;;;21.42;;
49962;SDS011;36180;57.678;11.910;2023-01-20T04:23:18;44.78;;;21.08;;
49962;SDS011;36180;57.678;11.910;2023-01-20T04:25:49;40.25;;;20.52;;
49962;SDS011;36180;57.678;11.910;2023-01-20T04:28:16;44.17;;;21.38;;
49962;SDS011;36180;57.678;11.910;2023-01-20T04:30:43;44.33;;;20.80;;
49962;SDS011;36180;57.678;11.910;2023-01-20T04:33:10;43.45;;;20.70;;
49962;SDS011;36180;57.678;11.910;2023-01-20T04:35:37;38.75;;;19.20;;
49962;SDS011;36180;57.678;11.910;2023-01-20T04:38:05;38.50;;;19.33;;
49962;SDS011;36180;57.678;11.910;2023-01-20T04:40:34;41.55;;;20.35;;
49962;SDS011;36180;57.678;11.910;2023-01-20T04:43:01;41.08;;;21.20;;
49962;SDS011;36180;57.678;11.910;2023-01-20T04:45:28;37.30;;;20.40;;
49962;SDS011;36180;57.678;11.910;2023-01-20T04:47:55;38.70;;;20.13;;
49962;SDS011;36180;57.678;11.910;2023-01-20T04:50:22;42.83;;;20.20;;
49962;SDS011;36180;57.678;11.910;2023-01-20T04:52:52;38.78;;;19.90;;
49962;SDS011;36180;57.678;11.910;2023-01-20T04:55:20;36.20;;;18.38;;
49962;SDS011;36180;57.678;11.910;2023-01-20T04:57:49;44.78;;;20.70;;
49962;SDS011;36180;57.678;11.910;2023-01-20T05:00:16;39.33;;;20.67;;
49962;SDS011;36180;57.678;11.910;2023-01-20T05:02:44;48.20;;;21.58;;
49962;SDS011;36180;57.678;11.910;2023-01-20T05:05:12;49.65;;;21.25;;
49962;SDS011;36180;57.678;11.910;2023-01-20T05:07:39;47.80;;;20.25;;
49962;SDS011;36180;57.678;11.910;2023-01-20T05:10:06;52.25;;;21.85;;
49962;SDS011;36180;57.678;11.910;2023-01-20T05:12:34;49.28;;;20.45;;
49962;SDS011;36180;57.678;11.910;2023-01-20T05:15:04;51.78;;;21.63;;
49962;SDS011;36180;57.678;11.910;2023-01-20T05:17:31;56.33;;;20.65;;
49962;SDS011;36180;57.678;11.910;2023-01-20T05:19:58;52.45;;;21.02;;
49962;SDS011;36180;57.678;11.910;2023-01-20T05:22:26;56.42;;;23.10;;
49962;SDS011;36180;57.678;11.910;2023-01-20T05:24:57;49.53;;;21.23;;
49962;SDS011;36180;57.678;11.910;2023-01-20T05:27:24;52.63;;;22.27;;
49962;SDS011;36180;57.678;11.910;2023-01-20T05:29:51;54.22;;;21.65;;
49962;SDS011;36180;57.678;11.910;2023-01-20T05:32:20;49.30;;;22.63;;
49962;SDS011;36180;57.678;11.910;2023-01-20T05:34:47;54.42;;;23.25;;
49962;SDS011;36180;57.678;11.910;2023-01-20T05:37:15;53.40;;;23.02;;
49962;SDS011;36180;57.678;11.910;2023-01-20T05:39:42;49.22;;;22.05;;
49962;SDS011;36180;57.678;11.910;2023-01-20T05:42:09;52.90;;;22.10;;
49962;SDS011;36180;57.678;11.910;2023-01-20T05:44:37;44.25;;;21.65;;
49962;SDS011;36180;57.678;11.910;2023-01-20T05:47:04;52.92;;;22.33;;
49962;SDS011;36180;57.678;11.910;2023-01-20T05:49:32;49.28;;;22.10;;
49962;SDS011;36180;57.678;11.910;2023-01-20T05:52:00;47.67;;;22.90;;
49962;SDS011;36180;57.678;11.910;2023-01-20T05:54:27;46.45;;;21.55;;
49962;SDS011;36180;57.678;11.910;2023-01-20T05:56:54;35.95;;;19.25;;
49962;SDS011;36180;57.678;11.910;2023-01-20T05:59:21;40.63;;;22.45;;
49962;SDS011;36180;57.678;11.910;2023-01-20T06:01:49;38.42;;;20.70;;
49962;SDS011;36180;57.678;11.910;2023-01-20T06:04:16;40.53;;;20.73;;
49962;SDS011;36180;57.678;11.910;2023-01-20T06:06:44;35.83;;;19.88;;
49962;SDS011;36180;57.678;11.910;2023-01-20T06:09:11;32.33;;;18.35;;
49962;SDS011;36180;57.678;11.910;2023-01-20T06:11:38;39.53;;;19.65;;
49962;SDS011;36180;57.678;11.910;2023-01-20T06:14:06;33.03;;;18.35;;
49962;SDS011;36180;57.678;11.910;2023-01-20T06:16:33;34.15;;;19.35;;
49962;SDS011;36180;57.678;11.910;2023-01-20T06:19:00;32.65;;;18.05;;
49962;SDS011;36180;57.678;11.910;2023-01-20T06:21:27;31.50;;;17.92;;
49962;SDS011;36180;57.678;11.910;2023-01-20T06:23:55;28.90;;;18.38;;
49962;SDS011;36180;57.678;11.910;2023-01-20T06:26:22;35.63;;;18.27;;
49962;SDS011;36180;57.678;11.910;2023-01-20T06:28:49;25.98;;;17.08;;
49962;SDS011;36180;57.678;11.910;2023-01-20T06:31:16;26.92;;;17.25;;
49962;SDS011;36180;57.678;11.910;2023-01-20T06:33:43;28.33;;;16.92;;
49962;SDS011;36180;57.678;11.910;2023-01-20T06:36:11;27.55;;;16.75;;
49962;SDS011;36180;57.678;11.910;2023-01-20T06:38:41;27.42;;;16.88;;
49962;SDS011;36180;57.678;11.910;2023-01-20T06:41:14;28.83;;;16.75;;
49962;SDS011;36180;57.678;11.910;2023-01-20T06:43:41;32.90;;;17.95;;
49962;SDS011;36180;57.678;11.910;2023-01-20T06:46:09;25.65;;;17.33;;
49962;SDS011;36180;57.678;11.910;2023-01-20T06:48:37;28.45;;;17.05;;
49962;SDS011;36180;57.678;11.910;2023-01-20T06:51:04;26.20;;;17.20;;
49962;SDS011;36180;57.678;11.910;2023-01-20T06:53:32;31.58;;;18.13;;
49962;SDS011;36180;57.678;11.910;2023-01-20T06:56:00;29.95;;;18.45;;
49962;SDS011;36180;57.678;11.910;2023-01-20T06:58:29;32.97;;;18.25;;
49962;SDS011;36180;57.678;11.910;2023-01-20T07:01:01;31.48;;;18.27;;
49962;SDS011;36180;57.678;11.910;2023-01-20T07:03:30;36.33;;;19.52;;
49962;SDS011;36180;57.678;11.910;2023-01-20T07:05:57;35.42;;;19.00;;
49962;SDS011;36180;57.678;11.910;2023-01-20T07:08:25;44.80;;;23.65;;
49962;SDS011;36180;57.678;11.910;2023-01-20T07:10:53;40.08;;;21.20;;
49962;SDS011;36180;57.678;11.910;2023-01-20T07:13:20;35.45;;;18.52;;
49962;SDS011;36180;57.678;11.910;2023-01-20T07:15:49;35.95;;;19.23;;
49962;SDS011;36180;57.678;11.910;2023-01-20T07:18:16;37.45;;;18.73;;
49962;SDS011;36180;57.678;11.910;2023-01-20T07:20:43;34.25;;;18.98;;
49962;SDS011;36180;57.678;11.910;2023-01-20T07:23:10;34.58;;;18.58;;
49962;SDS011;36180;57.678;11.910;2023-01-20T07:25:37;37.28;;;18.95;;
49962;SDS011;36180;57.678;11.910;2023-01-20T07:28:04;36.95;;;19.50;;
49962;SDS011;36180;57.678;11.910;2023-01-20T07:30:31;34.95;;;18.77;;
49962;SDS011;36180;57.678;11.910;2023-01-20T07:33:00;34.75;;;17.95;;
49962;SDS011;36180;57.678;11.910;2023-01-20T07:35:27;34.40;;;17.08;;
49962;SDS011;36180;57.678;11.910;2023-01-20T07:37:55;34.42;;;17.95;;
49962;SDS011;36180;57.678;11.910;2023-01-20T07:40:22;37.38;;;19.67;;
49962;SDS011;36180;57.678;11.910;2023-01-20T07:42:49;39.72;;;21.23;;
49962;SDS011;36180;57.678;11.910;2023-01-20T07:45:17;38.65;;;21.10;;
49962;SDS011;36180;57.678;11.910;2023-01-20T07:47:44;41.08;;;21.27;;
49962;SDS011;36180;57.678;11.910;2023-01-20T07:50:12;37.80;;;19.27;;
49962;SDS011;36180;57.678;11.910;2023-01-20T07:52:39;36.75;;;19.65;;
49962;SDS011;36180;57.678;11.910;2023-01-20T07:55:07;37.75;;;19.17;;
49962;SDS011;36180;57.678;11.910;2023-01-20T07:57:34;38.05;;;19.40;;
49962;SDS011;36180;57.678;11.910;2023-01-20T08:00:02;36.75;;;20.35;;
49962;SDS011;36180;57.678;11.910;2023-01-20T08:02:35;36.05;;;19.00;;
49962;SDS011;36180;57.678;11.910;2023-01-20T08:05:02;45.58;;;22.17;;
49962;SDS011;36180;57.678;11.910;2023-01-20T08:07:31;35.05;;;19.48;;
49962;SDS011;36180;57.678;11.910;2023-01-20T08:09:59;34.05;;;18.33;;
49962;SDS011;36180;57.678;11.910;2023-01-20T08:12:26;34.47;;;18.13;;
49962;SDS011;36180;57.678;11.910;2023-01-20T08:14:54;35.40;;;18.30;;
49962;SDS011;36180;57.678;11.910;2023-01-20T08:17:21;29.88;;;17.58;;
49962;SDS011;36180;57.678;11.910;2023-01-20T08:19:48;31.67;;;17.05;;
49962;SDS011;36180;57.678;11.910;2023-01-20T08:22:15;35.38;;;18.52;;
49962;SDS011;36180;57.678;11.910;2023-01-20T08:24:44;31.17;;;17.35;;
49962;SDS011;36180;57.678;11.910;2023-01-20T08:27:11;35.45;;;18.88;;
49962;SDS011;36180;57.678;11.910;2023-01-20T08:29:38;27.58;;;17.13;;
49962;SDS011;36180;57.678;11.910;2023-01-20T08:32:05;35.08;;;17.52;;
49962;SDS011;36180;57.678;11.910;2023-01-20T08:34:32;32.28;;;17.83;;
49962;SDS011;36180;57.678;11.910;2023-01-20T08:37:00;32.83;;;17.92;;
49962;SDS011;36180;57.678;11.910;2023-01-20T08:39:27;32.47;;;19.33;;
49962;SDS011;36180;57.678;11.910;2023-01-20T08:41:55;29.25;;;17.27;;
49962;SDS011;36180;57.678;11.910;2023-01-20T08:44:22;25.95;;;16.85;;
49962;SDS011;36180;57.678;11.910;2023-01-20T08:46:49;27.80;;;17.15;;
49962;SDS011;36180;57.678;11.910;2023-01-20T08:49:19;23.83;;;15.30;;
49962;SDS011;36180;57.678;11.910;2023-01-20T08:51:47;24.55;;;16.08;;
49962;SDS011;36180;57.678;11.910;2023-01-20T08:54:15;26.15;;;15.35;;
49962;SDS011;36180;57.678;11.910;2023-01-20T08:56:42;23.45;;;15.02;;
49962;SDS011;36180;57.678;11.910;2023-01-20T08:59:11;24.60;;;16.10;;
49962;SDS011;36180;57.678;11.910;2023-01-20T09:01:38;23.75;;;15.15;;
49962;SDS011;36180;57.678;11.910;2023-01-20T09:04:06;21.80;;;15.02;;
49962;SDS011;36180;57.678;11.910;2023-01-20T09:06:40;19.75;;;14.60;;
49962;SDS011;36180;57.678;11.910;2023-01-20T09:09:08;23.50;;;15.38;;
49962;SDS011;36180;57.678;11.910;2023-01-20T09:11:35;20.50;;;15.02;;
49962;SDS011;36180;57.678;11.910;2023-01-20T09:14:04;24.00;;;15.70;;
49962;SDS011;36180;57.678;11.910;2023-01-20T09:16:32;26.23;;;15.82;;
49962;SDS011;36180;57.678;11.910;2023-01-20T09:19:00;24.20;;;15.52;;
49962;SDS011;36180;57.678;11.910;2023-01-20T09:21:27;24.52;;;16.42;;
49962;SDS011;36180;57.678;11.910;2023-01-20T09:23:54;25.20;;;16.10;;
49962;SDS011;36180;57.678;11.910;2023-01-20T09:26:22;25.48;;;16.52;;
49962;SDS011;36180;57.678;11.910;2023-01-20T09:28:49;23.00;;;15.57;;
49962;SDS011;36180;57.678;11.910;2023-01-20T09:31:17;26.33;;;16.92;;
49962;SDS011;36180;57.678;11.910;2023-01-20T09:33:45;27.45;;;17.15;;
49962;SDS011;36180;57.678;11.910;2023-01-20T09:36:12;28.38;;;17.05;;
49962;SDS011;36180;57.678;11.910;2023-01-20T09:38:40;28.23;;;16.75;;
49962;SDS011;36180;57.678;11.910;2023-01-20T09:41:25;27.65;;;17.15;;
49962;SDS011;36180;57.678;11.910;2023-01-20T09:44:27;25.85;;;17.55;;
49962;SDS011;36180;57.678;11.910;2023-01-20T09:47:03;30.45;;;18.10;;
49962;SDS011;36180;57.678;11.910;2023-01-20T09:49:54;30.88;;;17.85;;
49962;SDS011;36180;57.678;11.910;2023-01-20T09:53:00;33.75;;;17.40;;
49962;SDS011;36180;57.678;11.910;2023-01-20T09:55:39;35.13;;;19.45;;
49962;SDS011;36180;57.678;11.910;2023-01-20T09:58:13;30.38;;;17.48;;
49962;SDS011;36180;57.678;11.910;2023-01-20T10:00:45;27.88;;;17.50;;
49962;SDS011;36180;57.678;11.910;2023-01-20T10:03:15;26.48;;;17.08;;
49962;SDS011;36180;57.678;11.910;2023-01-20T10:05:47;30.05;;;17.33;;
49962;SDS011;36180;57.678;11.910;2023-01-20T10:08:17;24.00;;;16.85;;
49962;SDS011;36180;57.678;11.910;2023-01-20T10:10:47;28.60;;;16.55;;
49962;SDS011;36180;57.678;11.910;2023-01-20T10:13:17;28.25;;;18.13;;
49962;SDS011;36180;57.678;11.910;2023-01-20T10:15:47;27.85;;;16.63;;
49962;SDS011;36180;57.678;11.910;2023-01-20T10:18:19;31.35;;;18.00;;
49962;SDS011;36180;57.678;11.910;2023-01-20T10:20:52;30.85;;;16.95;;
49962;SDS011;36180;57.678;11.910;2023-01-20T10:23:23;28.95;;;17.20;;
49962;SDS011;36180;57.678;11.910;2023-01-20T10:25:55;28.15;;;16.98;;
49962;SDS011;36180;57.678;11.910;2023-01-20T10:28:26;27.23;;;17.23;;
49962;SDS011;36180;57.678;11.910;2023-01-20T10:30:54;27.48;;;17.40;;
49962;SDS011;36180;57.678;11.910;2023-01-20T10:33:25;28.83;;;17.23;;
49962;SDS011;36180;57.678;11.910;2023-01-20T10:35:55;30.33;;;17.98;;
49962;SDS011;36180;57.678;11.910;2023-01-20T10:38:25;26.65;;;16.27;;
49962;SDS011;36180;57.678;11.910;2023-01-20T10:40:59;27.63;;;15.80;;
49962;SDS011;36180;57.678;11.910;2023-01-20T10:43:29;27.30;;;16.67;;
49962;SDS011;36180;57.678;11.910;2023-01-20T10:46:02;31.65;;;19.48;;
49962;SDS011;36180;57.678;11.910;2023-01-20T10:48:40;22.50;;;14.40;;
49962;SDS011;36180;57.678;11.910;2023-01-20T10:51:18;25.65;;;14.95;;
49962;SDS011;36180;57.678;11.910;2023-01-20T10:53:52;23.23;;;14.98;;
49962;SDS011;36180;57.678;11.910;2023-01-20T10:56:30;21.50;;;14.77;;
49962;SDS011;36180;57.678;11.910;2023-01-20T10:59:06;26.08;;;15.75;;
49962;SDS011;36180;57.678;11.910;2023-01-20T11:01:35;21.17;;;14.43;;
49962;SDS011;36180;57.678;11.910;2023-01-20T11:04:02;25.85;;;15.35;;
49962;SDS011;36180;57.678;11.910;2023-01-20T11:06:31;26.48;;;14.45;;
49962;SDS011;36180;57.678;11.910;2023-01-20T11:09:00;22.00;;;14.52;;
49962;SDS011;36180;57.678;11.910;2023-01-20T11:11:43;22.55;;;14.20;;
49962;SDS011;36180;57.678;11.910;2023-01-20T11:14:10;25.40;;;15.70;;
49962;SDS011;36180;57.678;11.910;2023-01-20T11:16:37;23.08;;;15.05;;
49962;SDS011;36180;57.678;11.910;2023-01-20T11:19:06;21.02;;;14.50;;
49962;SDS011;36180;57.678;11.910;2023-01-20T11:21:35;22.77;;;14.43;;
49962;SDS011;36180;57.678;11.910;2023-01-20T11:24:22;23.35;;;14.25;;
49962;SDS011;36180;57.678;11.910;2023-01-20T11:27:00;23.25;;;14.60;;
49962;SDS011;36180;57.678;11.910;2023-01-20T11:29:28;19.90;;;14.05;;
49962;SDS011;36180;57.678;11.910;2023-01-20T11:31:56;22.58;;;15.10;;
49962;SDS011;36180;57.678;11.910;2023-01-20T11:34:24;21.35;;;14.50;;
49962;SDS011;36180;57.678;11.910;2023-01-20T11:39:55;21.38;;;14.52;;
49962;SDS011;36180;57.678;11.910;2023-01-20T11:42:25;21.42;;;13.25;;
49962;SDS011;36180;57.678;11.910;2023-01-20T11:44:53;18.33;;;12.85;;
49962;SDS011;36180;57.678;11.910;2023-01-20T11:47:22;17.63;;;12.70;;
49962;SDS011;36180;57.678;11.910;2023-01-20T11:52:46;19.92;;;13.27;;
49962;SDS011;36180;57.678;11.910;2023-01-20T11:55:14;18.33;;;13.82;;
49962;SDS011;36180;57.678;11.910;2023-01-20T11:57:43;18.75;;;13.32;;
49962;SDS011;36180;57.678;11.910;2023-01-20T12:00:29;18.33;;;12.73;;
49962;SDS011;36180;57.678;11.910;2023-01-20T12:03:14;17.33;;;12.50;;
49962;SDS011;36180;57.678;11.910;2023-01-20T12:06:12;17.55;;;12.68;;
49962;SDS011;36180;57.678;11.910;2023-01-20T12:08:46;18.52;;;13.43;;
49962;SDS011;36180;57.678;11.910;2023-01-20T12:11:16;17.23;;;13.00;;
49962;SDS011;36180;57.678;11.910;2023-01-20T12:13:51;17.42;;;12.73;;
49962;SDS011;36180;57.678;11.910;2023-01-20T12:16:48;18.55;;;13.93;;
49962;SDS011;36180;57.678;11.910;2023-01-20T12:19:34;21.52;;;15.30;;
49962;SDS011;36180;57.678;11.910;2023-01-20T12:22:08;21.95;;;14.50;;
49962;SDS011;36180;57.678;11.910;2023-01-20T12:24:42;19.88;;;13.98;;
49962;SDS011;36180;57.678;11.910;2023-01-20T12:27:31;19.00;;;13.97;;
49962;SDS011;36180;57.678;11.910;2023-01-20T12:29:59;22.15;;;14.50;;
49962;SDS011;36180;57.678;11.910;2023-01-20T12:32:29;19.98;;;13.20;;
49962;SDS011;36180;57.678;11.910;2023-01-20T12:34:57;18.33;;;13.02;;
49962;SDS011;36180;57.678;11.910;2023-01-20T12:37:27;18.48;;;12.90;;
49962;SDS011;36180;57.678;11.910;2023-01-20T12:40:02;19.90;;;13.13;;
49962;SDS011;36180;57.678;11.910;2023-01-20T12:42:38;19.83;;;12.60;;
49962;SDS011;36180;57.678;11.910;2023-01-20T12:45:29;18.05;;;12.27;;
49962;SDS011;36180;57.678;11.910;2023-01-20T12:48:03;19.67;;;12.88;;
49962;SDS011;36180;57.678;11.910;2023-01-20T12:50:44;19.42;;;13.15;;
49962;SDS011;36180;57.678;11.910;2023-01-20T12:53:29;22.67;;;13.93;;
49962;SDS011;36180;57.678;11.910;2023-01-20T12:56:07;19.83;;;12.82;;
49962;SDS011;36180;57.678;11.910;2023-01-20T12:58:42;18.35;;;12.70;;
49962;SDS011;36180;57.678;11.910;2023-01-20T13:01:23;26.23;;;14.45;;
49962;SDS011;36180;57.678;11.910;2023-01-20T13:04:10;21.17;;;12.60;;
49962;SDS011;36180;57.678;11.910;2023-01-20T13:07:21;22.58;;;13.63;;
49962;SDS011;36180;57.678;11.910;2023-01-20T13:10:02;22.08;;;14.63;;
49962;SDS011;36180;57.678;11.910;2023-01-20T13:12:42;21.02;;;14.95;;
49962;SDS011;36180;57.678;11.910;2023-01-20T13:15:16;24.65;;;15.30;;
49962;SDS011;36180;57.678;11.910;2023-01-20T13:17:48;22.40;;;14.07;;
49962;SDS011;36180;57.678;11.910;2023-01-20T13:20:24;22.10;;;13.80;;
49962;SDS011;36180;57.678;11.910;2023-01-20T13:22:53;20.85;;;13.73;;
49962;SDS011;36180;57.678;11.910;2023-01-20T13:25:21;23.20;;;14.68;;
49962;SDS011;36180;57.678;11.910;2023-01-20T13:27:50;20.75;;;14.40;;
49962;SDS011;36180;57.678;11.910;2023-01-20T13:30:38;23.13;;;14.27;;
49962;SDS011;36180;57.678;11.910;2023-01-20T13:33:13;17.83;;;13.50;;
49962;SDS011;36180;57.678;11.910;2023-01-20T13:35:48;19.85;;;13.90;;
49962;SDS011;36180;57.678;11.910;2023-01-20T13:38:16;24.98;;;14.25;;
49962;SDS011;36180;57.678;11.910;2023-01-20T13:40:46;18.95;;;13.02;;
49962;SDS011;36180;57.678;11.910;2023-01-20T13:49:11;19.45;;;12.90;;
49962;SDS011;36180;57.678;11.910;2023-01-20T13:51:43;20.15;;;13.00;;
49962;SDS011;36180;57.678;11.910;2023-01-20T14:00:15;19.02;;;13.52;;
49962;SDS011;36180;57.678;11.910;2023-01-20T14:02:43;21.85;;;13.95;;
49962;SDS011;36180;57.678;11.910;2023-01-20T14:05:18;19.55;;;13.55;;
49962;SDS011;36180;57.678;11.910;2023-01-20T14:07:56;21.60;;;14.00;;
49962;SDS011;36180;57.678;11.910;2023-01-20T14:10:24;20.15;;;12.98;;
49962;SDS011;36180;57.678;11.910;2023-01-20T14:12:51;19.65;;;13.55;;
49962;SDS011;36180;57.678;11.910;2023-01-20T14:15:24;26.55;;;14.15;;
49962;SDS011;36180;57.678;11.910;2023-01-20T14:17:53;17.13;;;12.32;;
49962;SDS011;36180;57.678;11.910;2023-01-20T14:20:21;18.83;;;12.48;;
49962;SDS011;36180;57.678;11.910;2023-01-20T14:22:49;17.48;;;12.30;;
49962;SDS011;36180;57.678;11.910;2023-01-20T14:25:20;16.95;;;11.88;;
49962;SDS011;36180;57.678;11.910;2023-01-20T14:27:49;17.05;;;12.73;;
49962;SDS011;36180;57.678;11.910;2023-01-20T14:30:18;16.42;;;12.02;;
49962;SDS011;36180;57.678;11.910;2023-01-20T14:32:48;16.00;;;12.07;;
49962;SDS011;36180;57.678;11.910;2023-01-20T14:35:16;17.80;;;11.20;;
49962;SDS011;36180;57.678;11.910;2023-01-20T14:37:48;15.95;;;11.73;;
49962;SDS011;36180;57.678;11.910;2023-01-20T14:40:18;17.92;;;11.73;;
49962;SDS011;36180;57.678;11.910;2023-01-20T14:42:55;20.13;;;12.32;;
49962;SDS011;36180;57.678;11.910;2023-01-20T14:45:23;15.77;;;11.80;;
49962;SDS011;36180;57.678;11.910;2023-01-20T14:47:53;17.58;;;11.60;;
49962;SDS011;36180;57.678;11.910;2023-01-20T14:50:21;14.73;;;11.27;;
49962;SDS011;36180;57.678;11.910;2023-01-20T14:52:49;15.90;;;11.73;;